sensor_id;sensor_type;location;lat;lon;timestamp;P1;durP1;ratioP1;P2;durP2;ratioP2
47009;SDS011;59230;54.164;-3.124;2022-08-21T00:02:03;25.25;;;4.75;;
47009;SDS011;59230;54.164;-3.124;2022-08-21T00:04:29;30.70;;;4.20;;
47009;SDS011;59230;54.164;-3.124;2022-08-21T00:06:55;33.50;;;4.55;;
47009;SDS011;59230;54.164;-3.124;2022-08-21T00:09:20;22.48;;;4.38;;
47009;SDS011;59230;54.164;-3.124;2022-08-21T00:11:46;36.72;;;4.68;;
47009;SDS011;59230;54.164;-3.124;2022-08-21T00:14:13;32.33;;;5.75;;
47009;SDS011;59230;54.164;-3.124;2022-08-21T00:16:39;33.00;;;5.10;;
47009;SDS011;59230;54.164;-3.124;2022-08-21T00:19:08;24.13;;;4.65;;
47009;SDS011;59230;54.164;-3.124;2022-08-21T00:21:34;34.58;;;5.32;;
47009;SDS011;59230;54.164;-3.124;2022-08-21T00:24:00;37.95;;;4.80;;
47009;SDS011;59230;54.164;-3.124;2022-08-21T00:26:26;26.52;;;4.10;;
47009;SDS011;59230;54.164;-3.124;2022-08-21T00:28:51;28.23;;;4.43;;
47009;SDS011;59230;54.164;-3.124;2022-08-21T00:31:17;23.52;;;3.92;;
47009;SDS011;59230;54.164;-3.124;2022-08-21T00:33:43;22.73;;;3.65;;
47009;SDS011;59230;54.164;-3.124;2022-08-21T00:36:09;22.92;;;3.90;;
47009;SDS011;59230;54.164;-3.124;2022-08-21T00:38:35;17.17;;;3.13;;
47009;SDS011;59230;54.164;-3.124;2022-08-21T00:41:02;26.30;;;3.67;;
47009;SDS011;59230;54.164;-3.124;2022-08-21T00:43:31;25.00;;;4.35;;
47009;SDS011;59230;54.164;-3.124;2022-08-21T00:45:58;18.35;;;3.67;;
47009;SDS011;59230;54.164;-3.124;2022-08-21T00:48:25;17.58;;;3.70;;
47009;SDS011;59230;54.164;-3.124;2022-08-21T00:50:55;23.13;;;5.20;;
47009;SDS011;59230;54.164;-3.124;2022-08-21T00:53:30;25.40;;;4.03;;
47009;SDS011;59230;54.164;-3.124;2022-08-21T00:55:56;17.48;;;3.97;;
47009;SDS011;59230;54.164;-3.124;2022-08-21T00:58:22;19.27;;;4.35;;
47009;SDS011;59230;54.164;-3.124;2022-08-21T01:00:49;19.40;;;4.28;;
47009;SDS011;59230;54.164;-3.124;2022-08-21T01:03:17;26.90;;;3.70;;
47009;SDS011;59230;54.164;-3.124;2022-08-21T01:05:44;20.10;;;3.50;;
47009;SDS011;59230;54.164;-3.124;2022-08-21T01:08:11;33.85;;;3.63;;
47009;SDS011;59230;54.164;-3.124;2022-08-21T01:10:38;20.75;;;3.50;;
47009;SDS011;59230;54.164;-3.124;2022-08-21T01:13:05;24.25;;;3.35;;
47009;SDS011;59230;54.164;-3.124;2022-08-21T01:15:33;17.63;;;2.97;;
47009;SDS011;59230;54.164;-3.124;2022-08-21T01:18:02;17.35;;;3.15;;
47009;SDS011;59230;54.164;-3.124;2022-08-21T01:20:28;16.40;;;2.92;;
47009;SDS011;59230;54.164;-3.124;2022-08-21T01:22:54;18.42;;;3.28;;
47009;SDS011;59230;54.164;-3.124;2022-08-21T01:25:19;20.08;;;3.63;;
47009;SDS011;59230;54.164;-3.124;2022-08-21T01:27:45;21.27;;;3.03;;
47009;SDS011;59230;54.164;-3.124;2022-08-21T01:30:20;18.05;;;3.20;;
47009;SDS011;59230;54.164;-3.124;2022-08-21T01:32:48;20.85;;;3.85;;
47009;SDS011;59230;54.164;-3.124;2022-08-21T01:35:15;22.48;;;3.28;;
47009;SDS011;59230;54.164;-3.124;2022-08-21T01:37:42;15.43;;;3.35;;
47009;SDS011;59230;54.164;-3.124;2022-08-21T01:40:08;15.50;;;3.42;;
47009;SDS011;59230;54.164;-3.124;2022-08-21T01:42:35;16.80;;;3.20;;
47009;SDS011;59230;54.164;-3.124;2022-08-21T01:45:00;16.77;;;2.90;;
47009;SDS011;59230;54.164;-3.124;2022-08-21T01:47:26;17.02;;;2.80;;
47009;SDS011;59230;54.164;-3.124;2022-08-21T01:49:51;20.65;;;3.28;;
47009;SDS011;59230;54.164;-3.124;2022-08-21T01:52:17;16.70;;;3.00;;
47009;SDS011;59230;54.164;-3.124;2022-08-21T01:54:44;16.67;;;3.30;;
47009;SDS011;59230;54.164;-3.124;2022-08-21T01:57:10;16.23;;;3.08;;
47009;SDS011;59230;54.164;-3.124;2022-08-21T01:59:37;20.60;;;3.65;;
47009;SDS011;59230;54.164;-3.124;2022-08-21T02:02:03;12.80;;;3.33;;
47009;SDS011;59230;54.164;-3.124;2022-08-21T02:04:28;16.83;;;2.85;;
47009;SDS011;59230;54.164;-3.124;2022-08-21T02:06:55;16.77;;;2.92;;
47009;SDS011;59230;54.164;-3.124;2022-08-21T02:09:21;26.25;;;3.90;;
47009;SDS011;59230;54.164;-3.124;2022-08-21T02:11:46;18.92;;;3.30;;
47009;SDS011;59230;54.164;-3.124;2022-08-21T02:14:12;15.52;;;2.95;;
47009;SDS011;59230;54.164;-3.124;2022-08-21T02:16:40;21.40;;;3.47;;
47009;SDS011;59230;54.164;-3.124;2022-08-21T02:19:07;15.35;;;3.30;;
47009;SDS011;59230;54.164;-3.124;2022-08-21T02:21:32;21.75;;;3.33;;
47009;SDS011;59230;54.164;-3.124;2022-08-21T02:23:58;21.75;;;3.35;;
47009;SDS011;59230;54.164;-3.124;2022-08-21T02:26:23;15.15;;;2.95;;
47009;SDS011;59230;54.164;-3.124;2022-08-21T02:28:49;21.08;;;3.65;;
47009;SDS011;59230;54.164;-3.124;2022-08-21T02:31:14;19.80;;;2.50;;
47009;SDS011;59230;54.164;-3.124;2022-08-21T02:33:40;15.13;;;2.38;;
47009;SDS011;59230;54.164;-3.124;2022-08-21T02:36:06;16.95;;;3.20;;
47009;SDS011;59230;54.164;-3.124;2022-08-21T02:38:33;13.25;;;2.45;;
47009;SDS011;59230;54.164;-3.124;2022-08-21T02:41:02;14.07;;;3.00;;
47009;SDS011;59230;54.164;-3.124;2022-08-21T02:43:29;19.08;;;3.15;;
47009;SDS011;59230;54.164;-3.124;2022-08-21T02:45:55;16.75;;;2.75;;
47009;SDS011;59230;54.164;-3.124;2022-08-21T02:48:24;21.35;;;2.92;;
47009;SDS011;59230;54.164;-3.124;2022-08-21T02:50:53;27.50;;;2.80;;
47009;SDS011;59230;54.164;-3.124;2022-08-21T02:53:20;14.07;;;3.20;;
47009;SDS011;59230;54.164;-3.124;2022-08-21T02:55:47;18.10;;;2.80;;
47009;SDS011;59230;54.164;-3.124;2022-08-21T02:58:14;21.60;;;2.95;;
47009;SDS011;59230;54.164;-3.124;2022-08-21T03:00:42;14.77;;;2.60;;
47009;SDS011;59230;54.164;-3.124;2022-08-21T03:03:08;23.10;;;2.63;;
47009;SDS011;59230;54.164;-3.124;2022-08-21T03:05:34;18.60;;;2.58;;
47009;SDS011;59230;54.164;-3.124;2022-08-21T03:08:02;15.02;;;2.47;;
47009;SDS011;59230;54.164;-3.124;2022-08-21T03:10:29;14.07;;;2.97;;
47009;SDS011;59230;54.164;-3.124;2022-08-21T03:12:56;17.75;;;3.08;;
47009;SDS011;59230;54.164;-3.124;2022-08-21T03:15:22;19.30;;;2.80;;
47009;SDS011;59230;54.164;-3.124;2022-08-21T03:17:49;16.75;;;3.15;;
47009;SDS011;59230;54.164;-3.124;2022-08-21T03:20:16;20.38;;;3.17;;
47009;SDS011;59230;54.164;-3.124;2022-08-21T03:22:43;14.50;;;2.30;;
47009;SDS011;59230;54.164;-3.124;2022-08-21T03:25:08;26.45;;;3.58;;
47009;SDS011;59230;54.164;-3.124;2022-08-21T03:27:35;19.38;;;2.80;;
47009;SDS011;59230;54.164;-3.124;2022-08-21T03:30:02;15.20;;;3.03;;
47009;SDS011;59230;54.164;-3.124;2022-08-21T03:32:29;19.52;;;3.28;;
47009;SDS011;59230;54.164;-3.124;2022-08-21T03:34:56;17.50;;;2.95;;
47009;SDS011;59230;54.164;-3.124;2022-08-21T03:37:22;23.48;;;3.50;;
47009;SDS011;59230;54.164;-3.124;2022-08-21T03:39:48;14.40;;;2.78;;
47009;SDS011;59230;54.164;-3.124;2022-08-21T03:42:14;17.60;;;2.53;;
47009;SDS011;59230;54.164;-3.124;2022-08-21T03:44:39;22.67;;;3.22;;
47009;SDS011;59230;54.164;-3.124;2022-08-21T03:47:05;22.63;;;2.90;;
47009;SDS011;59230;54.164;-3.124;2022-08-21T03:49:31;16.08;;;2.38;;
47009;SDS011;59230;54.164;-3.124;2022-08-21T03:51:57;15.65;;;2.33;;
47009;SDS011;59230;54.164;-3.124;2022-08-21T03:54:23;17.50;;;2.40;;
47009;SDS011;59230;54.164;-3.124;2022-08-21T03:56:48;17.05;;;3.28;;
47009;SDS011;59230;54.164;-3.124;2022-08-21T03:59:14;24.40;;;2.85;;
47009;SDS011;59230;54.164;-3.124;2022-08-21T04:01:40;20.45;;;3.03;;
47009;SDS011;59230;54.164;-3.124;2022-08-21T04:04:19;18.90;;;2.42;;
47009;SDS011;59230;54.164;-3.124;2022-08-21T04:06:45;18.48;;;2.72;;
47009;SDS011;59230;54.164;-3.124;2022-08-21T04:09:11;24.27;;;4.05;;
47009;SDS011;59230;54.164;-3.124;2022-08-21T04:11:36;17.95;;;2.40;;
47009;SDS011;59230;54.164;-3.124;2022-08-21T04:14:02;27.70;;;3.17;;
47009;SDS011;59230;54.164;-3.124;2022-08-21T04:16:27;15.93;;;2.60;;
47009;SDS011;59230;54.164;-3.124;2022-08-21T04:18:53;15.93;;;2.55;;
47009;SDS011;59230;54.164;-3.124;2022-08-21T04:21:18;21.63;;;2.75;;
47009;SDS011;59230;54.164;-3.124;2022-08-21T04:23:44;16.33;;;2.47;;
47009;SDS011;59230;54.164;-3.124;2022-08-21T04:26:09;22.15;;;2.95;;
47009;SDS011;59230;54.164;-3.124;2022-08-21T04:28:35;29.58;;;2.85;;
47009;SDS011;59230;54.164;-3.124;2022-08-21T04:31:00;22.25;;;2.60;;
47009;SDS011;59230;54.164;-3.124;2022-08-21T04:33:26;13.75;;;2.85;;
47009;SDS011;59230;54.164;-3.124;2022-08-21T04:35:52;21.15;;;3.03;;
47009;SDS011;59230;54.164;-3.124;2022-08-21T04:38:17;18.33;;;3.10;;
47009;SDS011;59230;54.164;-3.124;2022-08-21T04:40:43;19.85;;;2.47;;
47009;SDS011;59230;54.164;-3.124;2022-08-21T04:43:09;26.13;;;3.17;;
47009;SDS011;59230;54.164;-3.124;2022-08-21T04:45:37;26.05;;;2.72;;
47009;SDS011;59230;54.164;-3.124;2022-08-21T04:48:07;19.15;;;3.22;;
47009;SDS011;59230;54.164;-3.124;2022-08-21T04:50:45;29.00;;;4.13;;
47009;SDS011;59230;54.164;-3.124;2022-08-21T04:53:22;20.90;;;3.70;;
47009;SDS011;59230;54.164;-3.124;2022-08-21T04:55:50;24.10;;;2.97;;
47009;SDS011;59230;54.164;-3.124;2022-08-21T04:58:19;16.02;;;3.03;;
47009;SDS011;59230;54.164;-3.124;2022-08-21T05:00:46;15.73;;;3.22;;
47009;SDS011;59230;54.164;-3.124;2022-08-21T05:03:12;19.98;;;2.83;;
47009;SDS011;59230;54.164;-3.124;2022-08-21T05:05:39;10.82;;;2.17;;
47009;SDS011;59230;54.164;-3.124;2022-08-21T05:08:06;24.13;;;2.53;;
47009;SDS011;59230;54.164;-3.124;2022-08-21T05:10:32;11.98;;;2.30;;
47009;SDS011;59230;54.164;-3.124;2022-08-21T05:12:58;13.02;;;2.45;;
47009;SDS011;59230;54.164;-3.124;2022-08-21T05:15:24;22.90;;;2.75;;
47009;SDS011;59230;54.164;-3.124;2022-08-21T05:17:50;11.85;;;1.88;;
47009;SDS011;59230;54.164;-3.124;2022-08-21T05:20:15;13.02;;;1.92;;
47009;SDS011;59230;54.164;-3.124;2022-08-21T05:22:41;10.32;;;1.98;;
47009;SDS011;59230;54.164;-3.124;2022-08-21T05:25:13;20.90;;;2.47;;
47009;SDS011;59230;54.164;-3.124;2022-08-21T05:27:38;14.65;;;2.83;;
47009;SDS011;59230;54.164;-3.124;2022-08-21T05:30:04;12.50;;;2.40;;
47009;SDS011;59230;54.164;-3.124;2022-08-21T05:32:32;14.23;;;2.33;;
47009;SDS011;59230;54.164;-3.124;2022-08-21T05:34:57;14.45;;;2.08;;
47009;SDS011;59230;54.164;-3.124;2022-08-21T05:37:24;17.60;;;2.35;;
47009;SDS011;59230;54.164;-3.124;2022-08-21T05:39:49;10.93;;;1.90;;
47009;SDS011;59230;54.164;-3.124;2022-08-21T05:42:14;20.08;;;2.30;;
47009;SDS011;59230;54.164;-3.124;2022-08-21T05:44:40;13.93;;;2.00;;
47009;SDS011;59230;54.164;-3.124;2022-08-21T05:47:06;20.98;;;2.58;;
47009;SDS011;59230;54.164;-3.124;2022-08-21T05:49:33;15.07;;;2.20;;
47009;SDS011;59230;54.164;-3.124;2022-08-21T05:51:59;18.23;;;2.20;;
47009;SDS011;59230;54.164;-3.124;2022-08-21T05:54:24;15.38;;;2.08;;
47009;SDS011;59230;54.164;-3.124;2022-08-21T05:56:50;15.10;;;1.95;;
47009;SDS011;59230;54.164;-3.124;2022-08-21T05:59:16;14.25;;;2.17;;
47009;SDS011;59230;54.164;-3.124;2022-08-21T06:01:43;13.32;;;2.10;;
47009;SDS011;59230;54.164;-3.124;2022-08-21T06:04:10;17.85;;;2.17;;
47009;SDS011;59230;54.164;-3.124;2022-08-21T06:06:35;10.43;;;1.80;;
47009;SDS011;59230;54.164;-3.124;2022-08-21T06:09:01;22.88;;;2.55;;
47009;SDS011;59230;54.164;-3.124;2022-08-21T06:11:27;16.35;;;2.20;;
47009;SDS011;59230;54.164;-3.124;2022-08-21T06:13:53;18.08;;;2.25;;
47009;SDS011;59230;54.164;-3.124;2022-08-21T06:16:18;14.95;;;1.95;;
47009;SDS011;59230;54.164;-3.124;2022-08-21T06:18:44;17.25;;;2.13;;
47009;SDS011;59230;54.164;-3.124;2022-08-21T06:21:10;18.73;;;2.35;;
47009;SDS011;59230;54.164;-3.124;2022-08-21T06:23:39;19.77;;;2.97;;
47009;SDS011;59230;54.164;-3.124;2022-08-21T06:26:06;18.65;;;2.00;;
47009;SDS011;59230;54.164;-3.124;2022-08-21T06:28:32;23.13;;;2.10;;
47009;SDS011;59230;54.164;-3.124;2022-08-21T06:30:58;14.38;;;1.95;;
47009;SDS011;59230;54.164;-3.124;2022-08-21T06:33:23;11.90;;;1.85;;
47009;SDS011;59230;54.164;-3.124;2022-08-21T06:35:49;14.50;;;1.95;;
47009;SDS011;59230;54.164;-3.124;2022-08-21T06:38:14;19.35;;;1.98;;
47009;SDS011;59230;54.164;-3.124;2022-08-21T06:40:40;13.35;;;1.67;;
47009;SDS011;59230;54.164;-3.124;2022-08-21T06:43:10;15.35;;;2.13;;
47009;SDS011;59230;54.164;-3.124;2022-08-21T06:45:36;15.32;;;1.88;;
47009;SDS011;59230;54.164;-3.124;2022-08-21T06:48:02;14.65;;;1.52;;
47009;SDS011;59230;54.164;-3.124;2022-08-21T06:50:28;18.15;;;2.70;;
47009;SDS011;59230;54.164;-3.124;2022-08-21T06:53:05;16.38;;;2.08;;
47009;SDS011;59230;54.164;-3.124;2022-08-21T06:55:32;19.77;;;2.22;;
47009;SDS011;59230;54.164;-3.124;2022-08-21T06:57:58;18.88;;;2.22;;
47009;SDS011;59230;54.164;-3.124;2022-08-21T07:00:24;12.63;;;1.70;;
47009;SDS011;59230;54.164;-3.124;2022-08-21T07:02:49;17.58;;;2.22;;
47009;SDS011;59230;54.164;-3.124;2022-08-21T07:05:15;14.88;;;2.33;;
47009;SDS011;59230;54.164;-3.124;2022-08-21T07:07:41;15.07;;;2.40;;
47009;SDS011;59230;54.164;-3.124;2022-08-21T07:10:06;12.25;;;1.90;;
47009;SDS011;59230;54.164;-3.124;2022-08-21T07:12:32;15.43;;;2.20;;
47009;SDS011;59230;54.164;-3.124;2022-08-21T07:14:58;22.25;;;3.15;;
47009;SDS011;59230;54.164;-3.124;2022-08-21T07:17:23;11.13;;;1.85;;
47009;SDS011;59230;54.164;-3.124;2022-08-21T07:19:49;15.05;;;2.13;;
47009;SDS011;59230;54.164;-3.124;2022-08-21T07:22:16;12.82;;;2.00;;
47009;SDS011;59230;54.164;-3.124;2022-08-21T07:24:43;11.88;;;1.52;;
47009;SDS011;59230;54.164;-3.124;2022-08-21T07:27:09;22.42;;;2.00;;
47009;SDS011;59230;54.164;-3.124;2022-08-21T07:29:35;8.98;;;1.55;;
47009;SDS011;59230;54.164;-3.124;2022-08-21T07:32:00;7.97;;;1.33;;
47009;SDS011;59230;54.164;-3.124;2022-08-21T07:34:26;12.57;;;1.80;;
47009;SDS011;59230;54.164;-3.124;2022-08-21T07:36:51;12.93;;;1.75;;
47009;SDS011;59230;54.164;-3.124;2022-08-21T07:39:17;10.43;;;1.67;;
47009;SDS011;59230;54.164;-3.124;2022-08-21T07:41:42;12.75;;;2.50;;
47009;SDS011;59230;54.164;-3.124;2022-08-21T07:44:08;8.05;;;1.63;;
47009;SDS011;59230;54.164;-3.124;2022-08-21T07:46:33;16.40;;;2.47;;
47009;SDS011;59230;54.164;-3.124;2022-08-21T07:48:59;8.35;;;1.60;;
47009;SDS011;59230;54.164;-3.124;2022-08-21T07:51:25;8.50;;;1.52;;
47009;SDS011;59230;54.164;-3.124;2022-08-21T07:53:52;14.25;;;1.70;;
47009;SDS011;59230;54.164;-3.124;2022-08-21T07:56:19;7.22;;;1.85;;
47009;SDS011;59230;54.164;-3.124;2022-08-21T07:58:45;16.00;;;1.95;;
47009;SDS011;59230;54.164;-3.124;2022-08-21T08:01:11;8.73;;;1.50;;
47009;SDS011;59230;54.164;-3.124;2022-08-21T08:03:37;12.20;;;1.70;;
47009;SDS011;59230;54.164;-3.124;2022-08-21T08:06:03;13.75;;;2.10;;
47009;SDS011;59230;54.164;-3.124;2022-08-21T08:08:30;10.27;;;1.90;;
47009;SDS011;59230;54.164;-3.124;2022-08-21T08:10:56;8.80;;;1.55;;
47009;SDS011;59230;54.164;-3.124;2022-08-21T08:13:22;9.63;;;1.80;;
47009;SDS011;59230;54.164;-3.124;2022-08-21T08:15:47;13.07;;;2.45;;
47009;SDS011;59230;54.164;-3.124;2022-08-21T08:18:13;14.32;;;2.38;;
47009;SDS011;59230;54.164;-3.124;2022-08-21T08:20:39;12.32;;;2.13;;
47009;SDS011;59230;54.164;-3.124;2022-08-21T08:23:06;13.32;;;1.50;;
47009;SDS011;59230;54.164;-3.124;2022-08-21T08:25:32;10.07;;;1.73;;
47009;SDS011;59230;54.164;-3.124;2022-08-21T08:27:57;10.73;;;1.80;;
47009;SDS011;59230;54.164;-3.124;2022-08-21T08:30:23;17.52;;;2.20;;
47009;SDS011;59230;54.164;-3.124;2022-08-21T08:32:48;8.30;;;1.60;;
47009;SDS011;59230;54.164;-3.124;2022-08-21T08:35:15;13.80;;;1.98;;
47009;SDS011;59230;54.164;-3.124;2022-08-21T08:37:40;7.75;;;1.30;;
47009;SDS011;59230;54.164;-3.124;2022-08-21T08:40:12;11.20;;;1.48;;
47009;SDS011;59230;54.164;-3.124;2022-08-21T08:42:40;11.37;;;1.73;;
47009;SDS011;59230;54.164;-3.124;2022-08-21T08:45:27;12.60;;;2.38;;
47009;SDS011;59230;54.164;-3.124;2022-08-21T08:48:00;9.32;;;1.70;;
47009;SDS011;59230;54.164;-3.124;2022-08-21T08:50:45;8.52;;;1.40;;
47009;SDS011;59230;54.164;-3.124;2022-08-21T08:53:18;10.88;;;1.52;;
47009;SDS011;59230;54.164;-3.124;2022-08-21T08:55:47;10.43;;;2.53;;
47009;SDS011;59230;54.164;-3.124;2022-08-21T08:58:19;9.10;;;1.67;;
47009;SDS011;59230;54.164;-3.124;2022-08-21T09:00:50;14.80;;;1.80;;
47009;SDS011;59230;54.164;-3.124;2022-08-21T09:03:18;10.45;;;2.00;;
47009;SDS011;59230;54.164;-3.124;2022-08-21T09:05:48;13.68;;;1.30;;
47009;SDS011;59230;54.164;-3.124;2022-08-21T09:08:42;12.20;;;2.20;;
47009;SDS011;59230;54.164;-3.124;2022-08-21T09:16:56;12.60;;;1.38;;
47009;SDS011;59230;54.164;-3.124;2022-08-21T09:19:51;7.57;;;1.48;;
47009;SDS011;59230;54.164;-3.124;2022-08-21T09:27:47;59.08;;;5.38;;
47009;SDS011;59230;54.164;-3.124;2022-08-21T09:30:13;11.63;;;1.73;;
47009;SDS011;59230;54.164;-3.124;2022-08-21T09:32:39;8.77;;;1.58;;
47009;SDS011;59230;54.164;-3.124;2022-08-21T09:35:12;11.68;;;2.22;;
47009;SDS011;59230;54.164;-3.124;2022-08-21T09:40:26;11.25;;;1.75;;
47009;SDS011;59230;54.164;-3.124;2022-08-21T09:43:05;11.50;;;1.90;;
47009;SDS011;59230;54.164;-3.124;2022-08-21T09:45:34;9.10;;;1.85;;
47009;SDS011;59230;54.164;-3.124;2022-08-21T09:50:45;15.70;;;2.70;;
47009;SDS011;59230;54.164;-3.124;2022-08-21T09:53:28;11.23;;;2.83;;
47009;SDS011;59230;54.164;-3.124;2022-08-21T09:55:56;9.32;;;1.45;;
47009;SDS011;59230;54.164;-3.124;2022-08-21T09:58:42;15.65;;;1.80;;
47009;SDS011;59230;54.164;-3.124;2022-08-21T10:01:44;10.60;;;2.40;;
47009;SDS011;59230;54.164;-3.124;2022-08-21T10:04:09;11.88;;;1.65;;
47009;SDS011;59230;54.164;-3.124;2022-08-21T10:06:35;11.65;;;2.15;;
47009;SDS011;59230;54.164;-3.124;2022-08-21T10:09:05;10.70;;;1.98;;
47009;SDS011;59230;54.164;-3.124;2022-08-21T10:11:32;9.73;;;1.48;;
47009;SDS011;59230;54.164;-3.124;2022-08-21T10:30:36;5.40;;;1.38;;
47009;SDS011;59230;54.164;-3.124;2022-08-21T10:35:47;5.95;;;1.30;;
47009;SDS011;59230;54.164;-3.124;2022-08-21T10:46:14;11.10;;;1.77;;
47009;SDS011;59230;54.164;-3.124;2022-08-21T10:52:09;14.52;;;1.65;;
47009;SDS011;59230;54.164;-3.124;2022-08-21T11:00:02;6.82;;;1.15;;
47009;SDS011;59230;54.164;-3.124;2022-08-21T11:02:35;10.40;;;1.30;;
47009;SDS011;59230;54.164;-3.124;2022-08-21T11:05:11;5.30;;;1.10;;
47009;SDS011;59230;54.164;-3.124;2022-08-21T11:07:43;9.50;;;1.95;;
47009;SDS011;59230;54.164;-3.124;2022-08-21T11:10:16;8.02;;;1.42;;
47009;SDS011;59230;54.164;-3.124;2022-08-21T11:12:47;6.25;;;0.93;;
47009;SDS011;59230;54.164;-3.124;2022-08-21T11:23:50;11.40;;;1.77;;
47009;SDS011;59230;54.164;-3.124;2022-08-21T11:29:16;6.93;;;1.20;;
47009;SDS011;59230;54.164;-3.124;2022-08-21T11:34:51;9.88;;;1.52;;
47009;SDS011;59230;54.164;-3.124;2022-08-21T11:37:30;6.13;;;1.50;;
47009;SDS011;59230;54.164;-3.124;2022-08-21T11:40:24;5.25;;;1.23;;
47009;SDS011;59230;54.164;-3.124;2022-08-21T11:45:39;5.40;;;1.20;;
47009;SDS011;59230;54.164;-3.124;2022-08-21T11:50:52;7.43;;;1.40;;
47009;SDS011;59230;54.164;-3.124;2022-08-21T11:55:53;12.60;;;1.33;;
47009;SDS011;59230;54.164;-3.124;2022-08-21T11:58:39;7.13;;;1.80;;
47009;SDS011;59230;54.164;-3.124;2022-08-21T12:01:14;6.75;;;2.67;;
47009;SDS011;59230;54.164;-3.124;2022-08-21T12:03:51;7.55;;;2.95;;
47009;SDS011;59230;54.164;-3.124;2022-08-21T12:06:31;6.50;;;1.60;;
47009;SDS011;59230;54.164;-3.124;2022-08-21T12:09:29;6.03;;;1.55;;
47009;SDS011;59230;54.164;-3.124;2022-08-21T12:12:00;10.65;;;1.90;;
47009;SDS011;59230;54.164;-3.124;2022-08-21T12:14:35;12.15;;;1.70;;
47009;SDS011;59230;54.164;-3.124;2022-08-21T12:17:06;5.47;;;1.00;;
47009;SDS011;59230;54.164;-3.124;2022-08-21T12:19:33;8.45;;;1.50;;
47009;SDS011;59230;54.164;-3.124;2022-08-21T12:24:36;7.55;;;1.38;;
47009;SDS011;59230;54.164;-3.124;2022-08-21T12:30:17;11.85;;;1.40;;
47009;SDS011;59230;54.164;-3.124;2022-08-21T12:32:56;10.63;;;1.50;;
47009;SDS011;59230;54.164;-3.124;2022-08-21T12:35:37;6.35;;;1.10;;
47009;SDS011;59230;54.164;-3.124;2022-08-21T12:40:41;4.38;;;1.02;;
47009;SDS011;59230;54.164;-3.124;2022-08-21T12:43:15;3.88;;;1.23;;
47009;SDS011;59230;54.164;-3.124;2022-08-21T12:51:06;6.93;;;1.65;;
47009;SDS011;59230;54.164;-3.124;2022-08-21T12:53:54;8.52;;;1.42;;
47009;SDS011;59230;54.164;-3.124;2022-08-21T12:56:22;7.90;;;1.65;;
47009;SDS011;59230;54.164;-3.124;2022-08-21T12:58:56;9.85;;;1.80;;
47009;SDS011;59230;54.164;-3.124;2022-08-21T13:01:38;7.15;;;1.58;;
47009;SDS011;59230;54.164;-3.124;2022-08-21T13:04:32;8.40;;;1.50;;
47009;SDS011;59230;54.164;-3.124;2022-08-21T13:07:01;4.80;;;1.65;;
47009;SDS011;59230;54.164;-3.124;2022-08-21T13:09:32;4.85;;;1.10;;
47009;SDS011;59230;54.164;-3.124;2022-08-21T13:11:57;11.43;;;1.60;;
47009;SDS011;59230;54.164;-3.124;2022-08-21T13:14:37;5.30;;;1.02;;
47009;SDS011;59230;54.164;-3.124;2022-08-21T13:17:05;6.45;;;1.33;;
47009;SDS011;59230;54.164;-3.124;2022-08-21T13:19:32;8.18;;;1.17;;
47009;SDS011;59230;54.164;-3.124;2022-08-21T13:21:59;6.20;;;1.25;;
47009;SDS011;59230;54.164;-3.124;2022-08-21T13:24:29;8.30;;;1.02;;
47009;SDS011;59230;54.164;-3.124;2022-08-21T13:26:59;4.63;;;0.90;;
47009;SDS011;59230;54.164;-3.124;2022-08-21T13:29:29;8.57;;;1.20;;
47009;SDS011;59230;54.164;-3.124;2022-08-21T13:31:58;5.45;;;1.00;;
47009;SDS011;59230;54.164;-3.124;2022-08-21T13:34:28;5.88;;;1.10;;
47009;SDS011;59230;54.164;-3.124;2022-08-21T13:36:57;7.03;;;1.30;;
47009;SDS011;59230;54.164;-3.124;2022-08-21T13:39:24;6.90;;;1.30;;
47009;SDS011;59230;54.164;-3.124;2022-08-21T13:41:50;6.68;;;1.08;;
47009;SDS011;59230;54.164;-3.124;2022-08-21T13:44:20;7.88;;;1.30;;
47009;SDS011;59230;54.164;-3.124;2022-08-21T13:46:47;7.50;;;0.90;;
47009;SDS011;59230;54.164;-3.124;2022-08-21T13:49:15;4.85;;;0.95;;
47009;SDS011;59230;54.164;-3.124;2022-08-21T13:51:42;8.02;;;1.15;;
47009;SDS011;59230;54.164;-3.124;2022-08-21T13:54:29;7.05;;;1.35;;
47009;SDS011;59230;54.164;-3.124;2022-08-21T13:57:02;5.03;;;1.00;;
47009;SDS011;59230;54.164;-3.124;2022-08-21T13:59:30;6.78;;;0.98;;
47009;SDS011;59230;54.164;-3.124;2022-08-21T14:02:02;4.07;;;0.93;;
47009;SDS011;59230;54.164;-3.124;2022-08-21T14:07:25;4.78;;;1.08;;
47009;SDS011;59230;54.164;-3.124;2022-08-21T14:09:53;6.63;;;1.10;;
47009;SDS011;59230;54.164;-3.124;2022-08-21T14:12:24;3.67;;;1.02;;
47009;SDS011;59230;54.164;-3.124;2022-08-21T14:14:53;4.18;;;0.90;;
47009;SDS011;59230;54.164;-3.124;2022-08-21T14:17:28;4.07;;;0.82;;
47009;SDS011;59230;54.164;-3.124;2022-08-21T14:19:55;4.22;;;1.00;;
47009;SDS011;59230;54.164;-3.124;2022-08-21T14:22:21;6.60;;;1.10;;
47009;SDS011;59230;54.164;-3.124;2022-08-21T14:24:47;7.20;;;0.93;;
47009;SDS011;59230;54.164;-3.124;2022-08-21T14:27:15;3.67;;;0.90;;
47009;SDS011;59230;54.164;-3.124;2022-08-21T14:29:42;6.00;;;0.82;;
47009;SDS011;59230;54.164;-3.124;2022-08-21T14:32:15;4.75;;;1.17;;
47009;SDS011;59230;54.164;-3.124;2022-08-21T14:34:45;6.25;;;1.25;;
47009;SDS011;59230;54.164;-3.124;2022-08-21T14:37:10;8.10;;;1.15;;
47009;SDS011;59230;54.164;-3.124;2022-08-21T14:39:36;4.63;;;0.98;;
47009;SDS011;59230;54.164;-3.124;2022-08-21T14:42:01;3.15;;;0.80;;
47009;SDS011;59230;54.164;-3.124;2022-08-21T14:44:27;1.80;;;0.57;;
47009;SDS011;59230;54.164;-3.124;2022-08-21T14:46:53;4.85;;;1.10;;
47009;SDS011;59230;54.164;-3.124;2022-08-21T14:51:48;6.88;;;1.00;;
47009;SDS011;59230;54.164;-3.124;2022-08-21T14:54:18;7.50;;;0.90;;
47009;SDS011;59230;54.164;-3.124;2022-08-21T14:56:43;5.32;;;1.08;;
47009;SDS011;59230;54.164;-3.124;2022-08-21T14:59:09;3.00;;;0.98;;
47009;SDS011;59230;54.164;-3.124;2022-08-21T15:01:35;4.72;;;0.95;;
47009;SDS011;59230;54.164;-3.124;2022-08-21T15:04:02;5.20;;;0.98;;
47009;SDS011;59230;54.164;-3.124;2022-08-21T15:06:28;3.65;;;1.00;;
47009;SDS011;59230;54.164;-3.124;2022-08-21T15:08:53;8.75;;;1.10;;
47009;SDS011;59230;54.164;-3.124;2022-08-21T15:11:20;6.38;;;0.98;;
47009;SDS011;59230;54.164;-3.124;2022-08-21T15:13:46;4.15;;;0.85;;
47009;SDS011;59230;54.164;-3.124;2022-08-21T15:16:12;7.05;;;0.93;;
47009;SDS011;59230;54.164;-3.124;2022-08-21T15:18:38;5.57;;;0.80;;
47009;SDS011;59230;54.164;-3.124;2022-08-21T15:21:04;4.22;;;0.80;;
47009;SDS011;59230;54.164;-3.124;2022-08-21T15:23:30;7.68;;;1.25;;
47009;SDS011;59230;54.164;-3.124;2022-08-21T15:25:56;3.03;;;0.75;;
47009;SDS011;59230;54.164;-3.124;2022-08-21T15:28:22;2.05;;;0.65;;
47009;SDS011;59230;54.164;-3.124;2022-08-21T15:30:48;5.72;;;0.70;;
47009;SDS011;59230;54.164;-3.124;2022-08-21T15:33:14;5.10;;;0.80;;
47009;SDS011;59230;54.164;-3.124;2022-08-21T15:35:39;4.75;;;0.70;;
47009;SDS011;59230;54.164;-3.124;2022-08-21T15:38:05;4.72;;;0.70;;
47009;SDS011;59230;54.164;-3.124;2022-08-21T15:40:31;3.70;;;0.85;;
47009;SDS011;59230;54.164;-3.124;2022-08-21T15:42:57;4.80;;;1.08;;
47009;SDS011;59230;54.164;-3.124;2022-08-21T15:45:24;4.25;;;0.80;;
47009;SDS011;59230;54.164;-3.124;2022-08-21T15:47:51;5.07;;;0.73;;
47009;SDS011;59230;54.164;-3.124;2022-08-21T15:50:17;4.17;;;0.80;;
47009;SDS011;59230;54.164;-3.124;2022-08-21T15:52:43;6.32;;;0.90;;
47009;SDS011;59230;54.164;-3.124;2022-08-21T15:55:09;7.10;;;0.95;;
47009;SDS011;59230;54.164;-3.124;2022-08-21T15:57:35;3.15;;;0.82;;
47009;SDS011;59230;54.164;-3.124;2022-08-21T16:00:11;5.05;;;0.70;;
47009;SDS011;59230;54.164;-3.124;2022-08-21T16:02:42;1.83;;;0.57;;
47009;SDS011;59230;54.164;-3.124;2022-08-21T16:05:15;3.35;;;0.60;;
47009;SDS011;59230;54.164;-3.124;2022-08-21T16:07:42;3.03;;;0.60;;